createdAt,value
2022-10-26T00:01:21.845Z,3.60
2022-10-26T00:03:49.620Z,3.77
2022-10-26T00:06:20.686Z,3.87
2022-10-26T00:08:48.852Z,3.80
2022-10-26T00:11:17.190Z,3.43
2022-10-26T00:13:46.003Z,3.73
2022-10-26T00:16:20.221Z,3.87
2022-10-26T00:18:48.393Z,3.57
2022-10-26T00:21:17.088Z,3.30
2022-10-26T00:23:44.389Z,3.43
2022-10-26T00:26:12.397Z,3.53
2022-10-26T00:28:39.917Z,3.53
2022-10-26T00:31:15.055Z,3.53
2022-10-26T00:33:42.780Z,3.33
2022-10-26T00:36:14.308Z,3.40
2022-10-26T00:38:46.514Z,3.50
2022-10-26T00:41:20.715Z,3.33
2022-10-26T00:43:48.629Z,3.30
2022-10-26T00:46:37.469Z,3.33
2022-10-26T00:49:21.199Z,2.93
2022-10-26T00:51:53.744Z,2.93
2022-10-26T00:54:22.155Z,3.70
2022-10-26T00:56:54.978Z,2.80
2022-10-26T00:59:23.523Z,3.00
2022-10-26T01:01:52.524Z,3.40
2022-10-26T01:04:20.422Z,3.13
2022-10-26T01:06:48.691Z,3.03
2022-10-26T01:09:18.272Z,3.03
2022-10-26T01:11:45.642Z,3.47
2022-10-26T01:14:17.204Z,3.17
2022-10-26T01:17:23.067Z,3.50
2022-10-26T01:20:32.762Z,3.83
2022-10-26T01:23:26.304Z,3.97
2022-10-26T01:26:36.180Z,3.67
2022-10-26T01:29:49.015Z,3.27
2022-10-26T01:32:26.964Z,3.27
2022-10-26T01:35:09.972Z,3.50
2022-10-26T01:37:55.131Z,3.80
2022-10-26T01:40:40.726Z,3.90
2022-10-26T01:43:14.029Z,4.30
2022-10-26T01:45:46.932Z,4.20
2022-10-26T01:48:21.124Z,4.13
2022-10-26T01:50:54.936Z,4.00
2022-10-26T01:53:22.777Z,3.63
2022-10-26T01:55:53.657Z,4.10
2022-10-26T01:58:42.679Z,3.73
2022-10-26T02:01:46.644Z,4.30
2022-10-26T02:04:40.186Z,4.10
2022-10-26T02:07:37.782Z,4.50
2022-10-26T02:10:37.962Z,4.30
2022-10-26T02:13:24.848Z,4.03
2022-10-26T02:16:06.328Z,4.13
2022-10-26T02:19:09.158Z,3.90
2022-10-26T02:21:47.200Z,3.53
2022-10-26T02:24:17.583Z,3.80
2022-10-26T02:26:50.492Z,4.03
2022-10-26T02:29:21.170Z,4.00
2022-10-26T02:31:51.940Z,3.60
2022-10-26T02:34:28.194Z,3.70
2022-10-26T02:37:00.179Z,4.03
2022-10-26T02:39:32.821Z,3.70
2022-10-26T02:42:05.822Z,3.40
2022-10-26T02:45:07.263Z,3.60
2022-10-26T02:47:35.027Z,3.40
2022-10-26T02:50:03.104Z,3.60
2022-10-26T02:53:03.243Z,3.57
2022-10-26T02:55:43.485Z,2.97
2022-10-26T02:58:22.477Z,3.10
2022-10-26T03:00:51.685Z,3.53
2022-10-26T03:03:19.893Z,3.03
2022-10-26T03:05:47.665Z,3.20
2022-10-26T03:08:15.145Z,3.10
2022-10-26T03:10:46.837Z,2.93
2022-10-26T03:13:14.839Z,2.50
2022-10-26T03:15:42.987Z,2.83
2022-10-26T03:18:10.931Z,3.10
2022-10-26T03:20:38.499Z,3.13
2022-10-26T03:23:06.176Z,3.00
2022-10-26T03:25:34.067Z,2.67
2022-10-26T03:28:04.242Z,2.70
2022-10-26T03:30:32.656Z,2.77
2022-10-26T03:33:00.434Z,2.90
2022-10-26T03:35:27.875Z,2.57
2022-10-26T03:37:55.475Z,2.50
2022-10-26T03:40:22.975Z,2.80
2022-10-26T03:42:51.098Z,2.90
2022-10-26T03:45:18.625Z,2.97
2022-10-26T03:47:48.822Z,2.70
2022-10-26T03:50:23.733Z,3.13
2022-10-26T03:52:51.563Z,2.93
2022-10-26T03:55:19.731Z,2.50
2022-10-26T03:57:47.448Z,2.70
2022-10-26T04:00:17.862Z,2.50
2022-10-26T04:02:53.760Z,2.50
2022-10-26T04:05:21.332Z,2.60
2022-10-26T04:08:00.728Z,2.67
2022-10-26T04:10:29.037Z,2.43
2022-10-26T04:12:57.597Z,2.40
2022-10-26T04:15:26.267Z,2.50
2022-10-26T04:18:02.747Z,2.70
2022-10-26T04:20:32.190Z,2.20
2022-10-26T04:23:03.816Z,2.50
2022-10-26T04:25:34.492Z,2.07
2022-10-26T04:28:05.294Z,2.40
2022-10-26T04:30:34.788Z,2.50
2022-10-26T04:33:02.872Z,2.47
2022-10-26T04:35:30.852Z,2.33
2022-10-26T04:38:07.391Z,2.70
2022-10-26T04:40:36.176Z,2.60
2022-10-26T04:43:04.239Z,2.43
2022-10-26T04:45:32.666Z,2.73
2022-10-26T04:48:10.027Z,2.80
2022-10-26T04:50:37.844Z,2.47
2022-10-26T04:53:07.499Z,2.70
2022-10-26T04:55:35.768Z,2.83
2022-10-26T04:58:03.477Z,2.70
2022-10-26T05:00:33.077Z,2.93
2022-10-26T05:03:06.761Z,2.87
2022-10-26T05:05:36.417Z,2.57
2022-10-26T05:08:04.716Z,2.57
2022-10-26T05:10:32.070Z,2.67
2022-10-26T05:13:02.262Z,2.80
2022-10-26T05:15:33.333Z,2.70
2022-10-26T05:18:05.838Z,2.70
2022-10-26T05:20:35.428Z,2.60
2022-10-26T05:23:06.724Z,2.90
2022-10-26T05:25:37.188Z,2.50
2022-10-26T05:28:09.759Z,2.47
2022-10-26T05:30:37.040Z,2.20
2022-10-26T05:33:04.626Z,2.33
2022-10-26T05:35:32.668Z,2.87
2022-10-26T05:38:00.555Z,2.33
2022-10-26T05:40:28.101Z,2.77
2022-10-26T05:43:04.429Z,3.37
2022-10-26T05:45:31.730Z,3.30
2022-10-26T05:48:02.522Z,2.90
2022-10-26T05:50:31.009Z,2.77
2022-10-26T05:52:58.428Z,2.73
2022-10-26T05:55:26.415Z,3.10
2022-10-26T05:57:54.087Z,2.70
2022-10-26T06:00:28.371Z,2.50
2022-10-26T06:03:15.176Z,2.60
2022-10-26T06:05:56.496Z,2.70
2022-10-26T06:08:27.579Z,3.27
2022-10-26T06:10:59.683Z,3.10
2022-10-26T06:13:27.461Z,2.73
2022-10-26T06:16:32.600Z,2.80
2022-10-26T06:19:59.256Z,3.00
2022-10-26T06:22:54.043Z,3.10
2022-10-26T06:26:02.703Z,2.37
2022-10-26T06:28:50.845Z,2.43
2022-10-26T06:31:18.629Z,2.27
2022-10-26T06:33:46.428Z,2.43
2022-10-26T06:36:27.401Z,2.50
2022-10-26T06:39:08.783Z,2.30
2022-10-26T06:41:37.606Z,2.50
2022-10-26T06:44:06.508Z,2.47
2022-10-26T06:47:07.557Z,2.43
2022-10-26T06:49:49.801Z,2.30
2022-10-26T06:52:26.430Z,2.17
2022-10-26T06:54:56.212Z,2.13
2022-10-26T06:57:32.873Z,2.20
2022-10-26T07:00:14.889Z,2.57
2022-10-26T07:02:43.151Z,1.97
2022-10-26T07:05:13.179Z,2.00
2022-10-26T07:07:47.109Z,1.90
2022-10-26T07:10:16.252Z,1.90
2022-10-26T07:12:43.734Z,1.80
2022-10-26T07:15:12.474Z,1.93
2022-10-26T07:17:49.603Z,1.80
2022-10-26T07:20:21.266Z,1.70
2022-10-26T07:22:56.710Z,1.90
2022-10-26T07:25:26.527Z,1.87
2022-10-26T07:27:59.513Z,1.70
2022-10-26T07:30:30.459Z,1.80
2022-10-26T07:33:12.315Z,1.70
2022-10-26T07:35:40.072Z,1.60
2022-10-26T07:38:08.561Z,1.90
2022-10-26T07:40:38.316Z,1.83
2022-10-26T07:43:05.880Z,2.00
2022-10-26T07:45:33.796Z,1.80
2022-10-26T07:48:02.209Z,1.90
2022-10-26T07:50:29.957Z,1.80
2022-10-26T07:53:00.177Z,1.93
2022-10-26T07:55:28.427Z,1.87
2022-10-26T07:57:56.797Z,2.23
2022-10-26T08:00:24.584Z,2.10
2022-10-26T08:02:52.133Z,1.97
2022-10-26T08:05:19.653Z,2.23
2022-10-26T08:07:47.545Z,2.20
2022-10-26T08:10:16.443Z,2.40
2022-10-26T08:12:44.551Z,2.00
2022-10-26T08:15:12.512Z,2.03
2022-10-26T08:17:40.026Z,2.23
2022-10-26T08:20:08.327Z,2.33
2022-10-26T08:22:36.435Z,2.53
2022-10-26T08:25:04.175Z,1.90
2022-10-26T08:27:31.976Z,2.00
2022-10-26T08:29:59.882Z,2.10
2022-10-26T08:32:27.768Z,1.97
2022-10-26T08:34:55.159Z,2.60
2022-10-26T08:37:23.399Z,2.20
2022-10-26T08:39:53.941Z,2.23
2022-10-26T08:42:43.428Z,2.30
2022-10-26T08:45:36.489Z,1.80
2022-10-26T08:48:14.686Z,1.93
2022-10-26T08:50:54.607Z,2.30
2022-10-26T08:54:04.782Z,2.33
2022-10-26T08:56:51.474Z,2.03
2022-10-26T08:59:32.415Z,2.20
2022-10-26T09:02:02.137Z,2.20
2022-10-26T09:04:32.702Z,2.30
2022-10-26T09:07:06.732Z,2.20
2022-10-26T09:09:46.364Z,2.20
2022-10-26T09:13:19.488Z,2.13
2022-10-26T09:16:05.512Z,2.07
2022-10-26T09:18:48.262Z,2.03
2022-10-26T09:21:34.674Z,2.10
2022-10-26T09:24:15.753Z,2.27
2022-10-26T09:27:19.149Z,2.27
2022-10-26T09:29:49.394Z,2.10
2022-10-26T09:32:41.184Z,1.97
2022-10-26T09:35:23.751Z,2.17
2022-10-26T09:37:59.546Z,2.10
2022-10-26T09:40:54.010Z,2.10
2022-10-26T09:43:51.562Z,2.43
2022-10-26T09:46:59.121Z,2.10
2022-10-26T09:49:49.298Z,2.30
2022-10-26T09:52:17.954Z,2.37
2022-10-26T09:54:46.636Z,2.17
2022-10-26T09:57:20.348Z,2.40
2022-10-26T09:59:51.220Z,2.23
2022-10-26T10:02:44.351Z,2.20
2022-10-26T10:05:52.552Z,1.97
2022-10-26T10:08:28.421Z,2.10
2022-10-26T10:10:57.784Z,2.30
2022-10-26T10:13:37.556Z,2.30
2022-10-26T10:16:25.592Z,2.33
2022-10-26T10:19:01.418Z,2.17
2022-10-26T10:21:48.976Z,2.30
2022-10-26T10:24:28.111Z,2.10
2022-10-26T10:27:16.452Z,2.10
2022-10-26T10:29:50.760Z,2.13
2022-10-26T10:32:24.751Z,2.20
2022-10-26T10:34:56.375Z,2.13
2022-10-26T10:37:47.336Z,2.13
2022-10-26T10:40:25.326Z,2.10
2022-10-26T10:43:04.436Z,2.20
2022-10-26T10:45:33.009Z,2.00
2022-10-26T10:48:23.511Z,2.20
2022-10-26T10:51:12.654Z,2.00
2022-10-26T10:53:50.386Z,2.10
2022-10-26T10:57:11.009Z,2.10
2022-10-26T11:00:02.719Z,1.73
2022-10-26T11:02:38.725Z,2.07
2022-10-26T11:05:27.683Z,1.93
2022-10-26T11:08:16.533Z,2.00
2022-10-26T11:11:18.700Z,2.13
2022-10-26T11:14:00.839Z,2.07
2022-10-26T11:16:48.933Z,2.20
2022-10-26T11:19:26.399Z,1.70
2022-10-26T11:21:57.787Z,2.50
2022-10-26T11:25:03.164Z,1.80
2022-10-26T11:27:53.138Z,1.90
2022-10-26T11:30:28.682Z,1.70
2022-10-26T11:33:09.644Z,1.80
2022-10-26T11:35:49.269Z,1.70
2022-10-26T11:38:38.991Z,1.60
2022-10-26T11:41:50.144Z,1.40
2022-10-26T11:44:53.159Z,1.70
2022-10-26T11:47:36.725Z,1.70
2022-10-26T11:50:36.836Z,1.50
2022-10-26T11:53:26.265Z,1.70
2022-10-26T11:55:57.516Z,1.23
2022-10-26T11:58:28.821Z,1.47
2022-10-26T12:01:05.474Z,1.57
2022-10-26T12:03:44.323Z,1.50
2022-10-26T12:06:15.564Z,1.77
2022-10-26T12:08:54.883Z,1.60
2022-10-26T12:11:46.754Z,1.77
2022-10-26T12:15:10.448Z,1.90
2022-10-26T12:17:52.888Z,1.67
2022-10-26T12:21:02.979Z,1.97
2022-10-26T12:23:40.799Z,1.67
2022-10-26T12:26:24.649Z,1.70
2022-10-26T12:29:04.387Z,1.60
2022-10-26T12:31:37.934Z,1.73
2022-10-26T12:34:24.316Z,1.80
2022-10-26T12:36:57.802Z,1.60
2022-10-26T12:39:35.675Z,1.70
2022-10-26T12:42:08.980Z,1.70
2022-10-26T12:44:46.041Z,1.53
2022-10-26T12:47:40.024Z,1.60
2022-10-26T12:50:07.405Z,1.37
2022-10-26T12:52:49.241Z,1.33
2022-10-26T12:55:34.026Z,1.37
2022-10-26T12:58:42.461Z,1.10
2022-10-26T13:01:40.027Z,1.60
2022-10-26T13:04:30.241Z,1.40
2022-10-26T13:07:28.348Z,1.60
2022-10-26T13:10:17.128Z,1.30
2022-10-26T13:12:53.691Z,1.30
2022-10-26T13:15:36.749Z,1.47
2022-10-26T13:18:14.749Z,1.40
2022-10-26T13:21:14.300Z,1.37
2022-10-26T13:24:08.431Z,1.43
2022-10-26T13:27:08.579Z,1.53
2022-10-26T13:30:05.509Z,1.30
2022-10-26T13:32:51.080Z,1.60
2022-10-26T13:35:22.153Z,1.77
2022-10-26T13:37:54.358Z,1.23
2022-10-26T13:40:28.581Z,1.47
2022-10-26T13:43:06.008Z,1.40
2022-10-26T13:46:09.506Z,1.43
2022-10-26T13:48:43.354Z,1.63
2022-10-26T13:51:31.473Z,1.37
2022-10-26T13:54:08.154Z,1.50
2022-10-26T13:56:44.989Z,1.50
2022-10-26T13:59:15.175Z,1.30
2022-10-26T14:01:42.670Z,1.40
2022-10-26T14:04:28.543Z,1.50
2022-10-26T14:06:56.680Z,1.33
2022-10-26T14:09:25.622Z,1.50
2022-10-26T14:12:00.049Z,1.17
2022-10-26T14:14:36.988Z,1.40
2022-10-26T14:17:05.498Z,1.37
2022-10-26T14:19:40.206Z,1.50
2022-10-26T14:22:08.512Z,1.17
2022-10-26T14:24:47.280Z,1.53
2022-10-26T14:27:22.266Z,1.30
2022-10-26T14:30:22.063Z,1.00
2022-10-26T14:32:42.774Z,1.20
2022-10-26T14:35:14.901Z,1.40
2022-10-26T14:37:49.171Z,1.57
2022-10-26T14:40:24.785Z,1.60
2022-10-26T14:43:05.638Z,1.70
2022-10-26T14:45:54.721Z,1.50
2022-10-26T14:48:31.513Z,1.53
2022-10-26T14:51:06.725Z,1.40
2022-10-26T14:53:40.015Z,1.50
2022-10-26T14:56:41.905Z,1.60
2022-10-26T14:59:30.738Z,1.40
2022-10-26T15:02:06.220Z,1.30
2022-10-26T15:04:38.974Z,1.50
2022-10-26T15:07:12.377Z,1.60
2022-10-26T15:09:43.064Z,1.40
2022-10-26T15:12:39.257Z,1.50
2022-10-26T15:15:15.523Z,1.40
2022-10-26T15:17:52.356Z,1.27
2022-10-26T15:20:24.219Z,1.40
2022-10-26T15:23:03.247Z,1.20
2022-10-26T15:25:34.609Z,1.50
2022-10-26T15:28:23.551Z,1.70
2022-10-26T15:31:11.568Z,1.10
2022-10-26T15:34:05.137Z,1.60
2022-10-26T15:36:36.006Z,1.30
2022-10-26T15:39:03.397Z,1.30
2022-10-26T15:41:38.763Z,1.30
2022-10-26T15:44:23.279Z,1.30
2022-10-26T15:46:51.007Z,2.30
2022-10-26T15:49:21.409Z,1.40
2022-10-26T15:51:49.834Z,1.43
2022-10-26T15:54:17.558Z,1.50
2022-10-26T15:56:45.536Z,1.40
2022-10-26T15:59:19.919Z,1.20
2022-10-26T16:01:47.617Z,1.43
2022-10-26T16:04:15.197Z,1.30
2022-10-26T16:06:43.392Z,1.40
2022-10-26T16:09:17.270Z,1.50
2022-10-26T16:11:45.537Z,1.70
2022-10-26T16:14:13.285Z,1.53
2022-10-26T16:16:41.516Z,1.60
2022-10-26T16:19:29.711Z,1.60
2022-10-26T16:21:58.692Z,1.40
2022-10-26T16:24:30.579Z,1.30
2022-10-26T16:26:59.148Z,1.40
2022-10-26T16:29:26.805Z,1.80
2022-10-26T16:31:54.468Z,2.50
2022-10-26T16:34:22.242Z,2.10
2022-10-26T16:36:50.164Z,1.83
2022-10-26T16:39:18.120Z,1.57
2022-10-26T16:41:45.631Z,1.63
2022-10-26T16:44:13.887Z,1.50
2022-10-26T16:46:41.685Z,1.50
2022-10-26T16:49:09.372Z,2.80
2022-10-26T16:51:37.121Z,2.07
2022-10-26T16:54:05.462Z,1.83
2022-10-26T16:56:33.534Z,1.90
2022-10-26T16:59:01.198Z,1.90
2022-10-26T17:01:29.418Z,1.90
2022-10-26T17:03:57.399Z,1.90
2022-10-26T17:06:25.029Z,2.20
2022-10-26T17:08:52.681Z,2.10
2022-10-26T17:11:22.806Z,2.17
2022-10-26T17:13:55.638Z,1.87
2022-10-26T17:16:25.267Z,2.60
2022-10-26T17:18:54.259Z,2.50
2022-10-26T17:21:32.859Z,2.10
2022-10-26T17:24:01.054Z,2.20
2022-10-26T17:26:29.655Z,2.37
2022-10-26T17:28:58.982Z,1.97
2022-10-26T17:31:27.228Z,2.10
2022-10-26T17:33:56.356Z,2.77
2022-10-26T17:36:26.262Z,2.60
2022-10-26T17:38:55.708Z,2.27
2022-10-26T17:41:24.308Z,2.33
2022-10-26T17:43:53.390Z,2.57
2022-10-26T17:46:26.280Z,4.77
2022-10-26T17:48:58.877Z,5.93
2022-10-26T17:51:29.379Z,9.27
2022-10-26T17:53:59.539Z,12.20
2022-10-26T17:56:34.094Z,16.47
2022-10-26T17:59:06.810Z,12.10
2022-10-26T18:01:34.216Z,10.13
2022-10-26T18:04:02.248Z,8.60
2022-10-26T18:06:30.229Z,10.40
2022-10-26T18:08:58.487Z,7.50
2022-10-26T18:11:27.396Z,10.63
2022-10-26T18:13:58.508Z,17.00
2022-10-26T18:16:28.188Z,15.50
2022-10-26T18:19:05.202Z,11.70
2022-10-26T18:21:37.983Z,13.77
2022-10-26T18:24:07.602Z,12.40
2022-10-26T18:26:36.045Z,10.97
2022-10-26T18:29:05.216Z,10.83
2022-10-26T18:31:35.254Z,12.77
2022-10-26T18:34:06.428Z,12.77
2022-10-26T18:36:34.376Z,11.10
2022-10-26T18:39:01.635Z,8.10
2022-10-26T18:41:29.496Z,8.27
2022-10-26T18:44:01.870Z,6.97
2022-10-26T18:46:33.782Z,5.37
2022-10-26T18:49:01.307Z,5.03
2022-10-26T18:51:34.924Z,5.80
2022-10-26T18:54:03.243Z,5.23
2022-10-26T18:56:31.046Z,5.47
2022-10-26T18:59:00.771Z,5.47
2022-10-26T19:01:35.126Z,5.40
2022-10-26T19:04:08.786Z,6.10
2022-10-26T19:06:45.575Z,5.30
2022-10-26T19:09:13.149Z,5.80
2022-10-26T19:11:42.489Z,5.80
2022-10-26T19:14:11.241Z,5.43
2022-10-26T19:16:47.539Z,5.00
2022-10-26T19:19:17.171Z,4.17
2022-10-26T19:21:49.670Z,3.60
2022-10-26T19:24:20.784Z,3.60
2022-10-26T19:26:51.151Z,4.23
2022-10-26T19:29:19.794Z,3.43
2022-10-26T19:31:51.048Z,3.03
2022-10-26T19:34:18.902Z,3.60
2022-10-26T19:36:47.439Z,3.30
2022-10-26T19:39:17.429Z,3.27
2022-10-26T19:41:46.326Z,3.20
2022-10-26T19:44:15.338Z,3.00
2022-10-26T19:46:43.974Z,3.20
2022-10-26T19:49:13.136Z,2.73
2022-10-26T19:51:40.690Z,3.13
2022-10-26T19:54:08.366Z,3.73
2022-10-26T19:56:38.039Z,3.53
2022-10-26T19:59:07.026Z,3.80
2022-10-26T20:01:34.691Z,4.60
2022-10-26T20:04:03.144Z,4.00
2022-10-26T20:06:31.641Z,4.37
2022-10-26T20:09:00.292Z,4.27
2022-10-26T20:11:28.025Z,4.00
2022-10-26T20:13:56.666Z,3.73
2022-10-26T20:16:25.013Z,3.97
2022-10-26T20:18:52.302Z,4.57
2022-10-26T20:21:19.646Z,4.40
2022-10-26T20:23:46.946Z,4.43
2022-10-26T20:26:19.308Z,4.57
2022-10-26T20:28:49.156Z,4.07
2022-10-26T20:31:17.047Z,5.17
2022-10-26T20:33:44.587Z,5.10
2022-10-26T20:36:12.520Z,4.63
2022-10-26T20:38:41.038Z,4.50
2022-10-26T20:41:14.965Z,4.87
2022-10-26T20:43:43.414Z,5.30
2022-10-26T20:46:17.534Z,5.17
2022-10-26T20:48:45.758Z,5.50
2022-10-26T20:51:22.189Z,4.93
2022-10-26T20:54:24.540Z,5.60
2022-10-26T20:56:55.529Z,5.60
2022-10-26T20:59:46.673Z,5.80
2022-10-26T21:02:14.192Z,6.00
2022-10-26T21:04:41.530Z,5.60
2022-10-26T21:07:09.918Z,5.47
2022-10-26T21:09:37.574Z,6.00
2022-10-26T21:12:05.603Z,5.93
2022-10-26T21:14:39.743Z,6.17
2022-10-26T21:17:10.414Z,5.93
2022-10-26T21:19:38.269Z,6.57
2022-10-26T21:22:05.611Z,6.10
2022-10-26T21:24:33.175Z,6.50
2022-10-26T21:27:00.534Z,7.00
2022-10-26T21:29:28.030Z,6.83
2022-10-26T21:31:55.340Z,7.10
2022-10-26T21:34:22.591Z,6.93
2022-10-26T21:36:50.099Z,7.10
2022-10-26T21:39:17.596Z,6.87
2022-10-26T21:41:44.971Z,7.03
2022-10-26T21:44:24.703Z,7.07
2022-10-26T21:46:59.950Z,6.07
2022-10-26T21:49:29.279Z,5.90
2022-10-26T21:51:56.926Z,5.53
2022-10-26T21:54:24.417Z,5.10
2022-10-26T21:56:51.967Z,5.03
2022-10-26T21:59:19.263Z,5.20
2022-10-26T22:01:46.990Z,4.43
2022-10-26T22:04:14.780Z,4.47
2022-10-26T22:06:42.759Z,5.13
2022-10-26T22:09:10.316Z,4.30
2022-10-26T22:11:37.968Z,4.83
2022-10-26T22:14:05.840Z,4.30
2022-10-26T22:16:34.634Z,4.00
2022-10-26T22:19:08.427Z,3.63
2022-10-26T22:21:40.906Z,3.60
2022-10-26T22:24:09.660Z,3.57
2022-10-26T22:26:38.077Z,3.27
2022-10-26T22:29:05.681Z,3.60
2022-10-26T22:31:37.998Z,3.90
2022-10-26T22:34:15.422Z,3.67
2022-10-26T22:36:43.645Z,3.70
2022-10-26T22:39:11.031Z,3.50
2022-10-26T22:41:38.246Z,3.67
2022-10-26T22:44:05.832Z,3.70
2022-10-26T22:46:33.389Z,3.60
2022-10-26T22:49:02.885Z,3.87
2022-10-26T22:51:34.127Z,2.77
2022-10-26T22:54:04.041Z,2.87
2022-10-26T22:56:35.123Z,2.90
2022-10-26T22:59:03.380Z,3.80
2022-10-26T23:01:39.403Z,2.93
2022-10-26T23:04:06.899Z,3.00
2022-10-26T23:06:34.970Z,3.03
2022-10-26T23:09:02.613Z,3.17
2022-10-26T23:11:31.021Z,3.43
2022-10-26T23:14:02.353Z,3.23
2022-10-26T23:16:31.555Z,3.57
2022-10-26T23:19:00.413Z,3.17
2022-10-26T23:21:29.686Z,3.33
2022-10-26T23:23:58.127Z,3.20
2022-10-26T23:26:25.775Z,3.30
2022-10-26T23:28:52.927Z,3.10
2022-10-26T23:31:26.623Z,3.10
2022-10-26T23:33:56.937Z,3.23
2022-10-26T23:36:24.731Z,3.03
2022-10-26T23:38:52.345Z,2.97
2022-10-26T23:41:20.017Z,2.93
2022-10-26T23:43:48.347Z,3.33
2022-10-26T23:46:15.761Z,3.33
2022-10-26T23:48:43.297Z,3.20
2022-10-26T23:51:10.788Z,3.33
2022-10-26T23:53:38.423Z,3.13
2022-10-26T23:56:06.399Z,2.70
2022-10-26T23:58:34.275Z,2.93
